This is the latest recevied weather packets stored in our database for station/object W9WRP. If no packets are shown the sender has not sent any weather packets the latest 10 day(s).
| Time | Temp. | Humidity | Pressure | Rain* | Wind** | Luminosity | Snow |
|---|---|---|---|---|---|---|---|
| 1788049509 | 42.22° C | 19% | 1010.2 hPa | 0 mm | - | 87 W/m² | - |
| 1788049204 | 42.78° C | 19% | 1010 hPa | 0 mm | - | 121 W/m² | - |
| 1788048894 | 42.78° C | 19% | 1010.3 hPa | 0 mm | - | 129 W/m² | - |
| 1788048589 | 42.78° C | 18% | 1010.2 hPa | 0 mm | - | 155 W/m² | - |
| 1788048286 | 42.78° C | 18% | 1010.3 hPa | 0 mm | - | 172 W/m² | - |
| 1788047984 | 42.78° C | 18% | 1010 hPa | 0 mm | - | 127 W/m² | - |
| 1788047678 | 42.78° C | 18% | 1010 hPa | 0 mm | - | 126 W/m² | - |
| 1788047378 | 42.78° C | 19% | 1010.1 hPa | 0 mm | - | 111 W/m² | - |
| 1788047072 | 42.78° C | 19% | 1010 hPa | 0 mm | - | 227 W/m² | - |
| 1788046767 | 42.78° C | 19% | 1010.2 hPa | 0 mm | - | 147 W/m² | - |
| 1788046461 | 42.78° C | 19% | 1010.3 hPa | 0 mm | - | 103 W/m² | - |
| 1788046160 | 42.78° C | 19% | 1010.4 hPa | 0 mm | - | 132 W/m² | - |
| 1788045855 | 43.33° C | 18% | 1010.3 hPa | 0 mm | - | 106 W/m² | - |
| 1788045550 | 42.78° C | 19% | 1010.4 hPa | 0 mm | - | 62 W/m² | - |
| 1788045246 | 42.78° C | 19% | 1010.1 hPa | 0 mm | - | 84 W/m² | - |
| 1788044940 | 42.22° C | 20% | 1010.4 hPa | 0 mm | - | 245 W/m² | - |
| 1788044639 | 42.78° C | 19% | 1010.5 hPa | 0 mm | - | 207 W/m² | - |
| 1788044333 | 42.78° C | 19% | 1010.6 hPa | 0 mm | - | 295 W/m² | - |
| 1788044029 | 43.89° C | 19% | 1010.8 hPa | 0 mm | - | 163 W/m² | - |
| 1788043725 | 43.89° C | 19% | 1010.8 hPa | 0 mm | - | 102 W/m² | - |
| 1788043419 | 42.78° C | 19% | 1010.7 hPa | 0 mm | - | 366 W/m² | - |
| 1788043118 | 43.89° C | 19% | 1011.1 hPa | 0 mm | - | 328 W/m² | - |
| 1788042815 | 43.89° C | 18% | 1011 hPa | 0 mm | - | 307 W/m² | - |
| 1788042513 | 42.78° C | 19% | 1011.1 hPa | 0 mm | - | 371 W/m² | - |
| 1788042208 | 41.67° C | 20% | 1011.3 hPa | 0 mm | - | 422 W/m² | - |
* Rain latest hour (hover to see other rain measurements)
** Current wind speed in m/s (hover to see current wind gust speed)